createdAt,value
2017-10-06T00:01:29.835Z,90.00
2017-10-06T00:03:58.238Z,90.90
2017-10-06T00:06:26.660Z,90.60
2017-10-06T00:08:55.093Z,89.90
2017-10-06T00:11:23.533Z,88.90
2017-10-06T00:13:52.170Z,84.60
2017-10-06T00:16:20.636Z,80.50
2017-10-06T00:18:49.042Z,80.00
2017-10-06T00:21:17.478Z,80.50
2017-10-06T00:23:45.923Z,80.20
2017-10-06T00:26:14.564Z,81.70
2017-10-06T00:28:42.971Z,75.00
2017-10-06T00:31:11.398Z,73.90
2017-10-06T00:33:40.571Z,67.80
2017-10-06T00:36:08.982Z,67.70
2017-10-06T00:38:38.208Z,64.50
2017-10-06T00:41:06.710Z,64.50
2017-10-06T00:43:35.118Z,63.80
2017-10-06T00:46:03.538Z,64.60
2017-10-06T00:48:31.946Z,61.60
2017-10-06T00:51:00.403Z,61.80
2017-10-06T00:53:29.071Z,61.00
2017-10-06T00:55:57.148Z,59.50
2017-10-06T00:58:25.634Z,58.80
2017-10-06T01:00:53.751Z,58.80
2017-10-06T01:03:22.186Z,58.30
2017-10-06T01:05:51.379Z,59.30
2017-10-06T01:08:20.559Z,59.40
2017-10-06T01:10:49.007Z,59.40
2017-10-06T01:13:17.450Z,59.80
2017-10-06T01:15:45.515Z,58.80
2017-10-06T01:18:14.719Z,59.20
2017-10-06T01:20:42.446Z,59.20
2017-10-06T01:23:10.164Z,58.00
2017-10-06T01:25:37.906Z,58.70
2017-10-06T01:28:06.734Z,58.70
2017-10-06T01:30:35.151Z,58.70
2017-10-06T01:33:03.582Z,58.90
2017-10-06T01:35:31.667Z,59.80
2017-10-06T01:38:00.086Z,58.90
2017-10-06T01:40:28.159Z,58.80
2017-10-06T01:42:56.589Z,60.30
2017-10-06T01:45:25.023Z,62.40
2017-10-06T01:47:54.230Z,61.90
2017-10-06T01:50:23.107Z,64.60
2017-10-06T01:52:51.547Z,64.60
2017-10-06T01:55:19.966Z,65.50
2017-10-06T01:57:48.379Z,62.00
2017-10-06T02:00:16.884Z,57.20
2017-10-06T02:02:45.335Z,57.20
2017-10-06T02:05:14.515Z,56.50
2017-10-06T02:07:42.988Z,56.50
2017-10-06T02:10:11.403Z,56.50
2017-10-06T02:12:39.813Z,55.90
2017-10-06T02:15:08.243Z,56.80
2017-10-06T02:17:36.651Z,56.20
2017-10-06T02:20:05.063Z,55.80
2017-10-06T02:22:33.169Z,56.20
2017-10-06T02:25:01.842Z,57.80
2017-10-06T02:27:30.259Z,58.50
2017-10-06T02:29:59.482Z,65.90
2017-10-06T02:32:27.890Z,65.80
2017-10-06T02:34:56.303Z,70.20
2017-10-06T02:37:24.816Z,74.10
2017-10-06T02:39:53.497Z,78.30
2017-10-06T02:42:22.180Z,80.80
2017-10-06T02:44:51.375Z,77.40
2017-10-06T02:47:19.802Z,77.30
2017-10-06T02:49:48.505Z,72.70
2017-10-06T02:52:16.934Z,63.90
2017-10-06T02:54:45.631Z,61.50
2017-10-06T02:57:14.505Z,64.60
2017-10-06T02:59:42.931Z,60.20
2017-10-06T03:02:12.374Z,58.10
2017-10-06T03:04:40.815Z,58.20
2017-10-06T03:07:09.230Z,56.90
2017-10-06T03:09:37.642Z,57.50
2017-10-06T03:12:06.090Z,59.20
2017-10-06T03:14:34.774Z,59.90
2017-10-06T03:17:03.190Z,59.00
2017-10-06T03:19:31.690Z,59.60
2017-10-06T03:22:00.117Z,59.90
2017-10-06T03:24:28.523Z,60.10
2017-10-06T03:26:57.980Z,64.30
2017-10-06T03:29:26.386Z,64.30
2017-10-06T03:31:54.802Z,69.60
2017-10-06T03:34:23.243Z,75.60
2017-10-06T03:36:51.923Z,74.00
2017-10-06T03:39:20.355Z,74.60
2017-10-06T03:41:48.806Z,82.10
2017-10-06T03:44:17.487Z,81.90
2017-10-06T03:46:45.907Z,84.70
2017-10-06T03:49:14.609Z,75.00
2017-10-06T03:51:43.033Z,74.40
2017-10-06T03:54:11.722Z,69.70
2017-10-06T03:56:40.152Z,70.30
2017-10-06T03:59:08.822Z,63.30
2017-10-06T04:01:37.495Z,62.30
2017-10-06T04:04:06.187Z,61.10
2017-10-06T04:06:34.874Z,59.40
2017-10-06T04:09:03.199Z,57.70
2017-10-06T04:11:31.923Z,57.90
2017-10-06T04:14:00.600Z,58.20
2017-10-06T04:16:29.278Z,58.20
2017-10-06T04:18:57.721Z,57.60
2017-10-06T04:21:26.395Z,57.20
2017-10-06T04:23:54.803Z,59.20
2017-10-06T04:26:23.237Z,56.90
2017-10-06T04:28:52.421Z,57.80
2017-10-06T04:31:20.856Z,57.80
2017-10-06T04:33:49.297Z,62.10
2017-10-06T04:36:18.492Z,65.90
2017-10-06T04:38:47.703Z,71.20
2017-10-06T04:41:16.381Z,71.10
2017-10-06T04:43:44.811Z,66.10
2017-10-06T04:46:13.281Z,69.10
2017-10-06T04:49:46.409Z,73.50
2017-10-06T04:52:15.175Z,73.60
2017-10-06T04:54:43.616Z,66.80
2017-10-06T04:57:12.305Z,64.10
2017-10-06T04:59:41.006Z,63.40
2017-10-06T05:02:09.689Z,65.00
2017-10-06T05:04:38.402Z,63.20
2017-10-06T05:07:07.128Z,62.20
2017-10-06T05:09:35.806Z,61.00
2017-10-06T05:12:04.512Z,59.50
2017-10-06T05:14:33.251Z,58.60
2017-10-06T05:17:02.714Z,54.60
2017-10-06T05:19:31.923Z,58.40
2017-10-06T05:22:00.659Z,58.40
2017-10-06T05:24:29.122Z,66.50
2017-10-06T05:26:57.864Z,64.00
2017-10-06T05:29:26.600Z,64.40
2017-10-06T05:31:56.035Z,68.70
2017-10-06T05:34:24.708Z,68.30
2017-10-06T05:36:54.165Z,72.20
2017-10-06T05:39:22.584Z,72.20
2017-10-06T05:41:52.031Z,70.10
2017-10-06T05:44:21.458Z,70.40
2017-10-06T05:46:49.997Z,73.20
2017-10-06T05:49:18.769Z,76.10
2017-10-06T05:51:47.536Z,79.20
2017-10-06T05:54:17.058Z,90.90
2017-10-06T05:56:46.131Z,90.90
2017-10-06T05:59:14.877Z,93.90
2017-10-06T06:01:44.158Z,98.90
2017-10-06T06:04:12.905Z,99.00
2017-10-06T06:06:41.654Z,98.80
2017-10-06T06:09:10.256Z,98.30
2017-10-06T06:11:38.822Z,99.90
2017-10-06T06:14:07.562Z,99.90
2017-10-06T06:16:37.076Z,94.00
2017-10-06T06:19:06.580Z,93.30
2017-10-06T06:21:36.078Z,94.30
2017-10-06T06:24:04.860Z,94.30
2017-10-06T06:26:33.564Z,87.30
2017-10-06T06:29:03.102Z,76.00
2017-10-06T06:31:31.880Z,75.80
2017-10-06T06:34:00.648Z,71.20
2017-10-06T06:36:29.604Z,71.30
2017-10-06T06:38:58.052Z,66.30
2017-10-06T06:41:26.858Z,67.20
2017-10-06T06:43:55.596Z,64.20
2017-10-06T06:46:24.938Z,62.10
2017-10-06T06:48:53.763Z,62.20
2017-10-06T06:51:22.270Z,57.80
2017-10-06T06:53:50.752Z,55.60
2017-10-06T06:56:19.248Z,54.00
2017-10-06T06:58:47.727Z,51.50
2017-10-06T07:01:15.521Z,45.20
2017-10-06T07:03:44.051Z,41.20
2017-10-06T07:06:12.536Z,42.30
2017-10-06T07:08:41.046Z,41.40
2017-10-06T07:11:08.878Z,43.20
2017-10-06T07:13:37.005Z,45.00
2017-10-06T07:16:05.483Z,41.90
2017-10-06T07:18:33.973Z,43.00
2017-10-06T07:21:02.476Z,40.90
2017-10-06T07:23:31.706Z,40.40
2017-10-06T07:26:00.188Z,40.30
2017-10-06T07:28:28.342Z,35.30
2017-10-06T07:30:56.839Z,40.20
2017-10-06T07:33:25.330Z,37.50
2017-10-06T07:35:53.842Z,37.60
2017-10-06T07:38:22.324Z,38.30
2017-10-06T07:40:50.805Z,37.30
2017-10-06T07:43:19.365Z,35.50
2017-10-06T07:45:47.659Z,33.00
2017-10-06T07:48:15.973Z,30.40
2017-10-06T07:50:44.318Z,28.70
2017-10-06T07:53:12.633Z,29.30
2017-10-06T07:55:41.118Z,32.90
2017-10-06T07:58:09.618Z,31.90
2017-10-06T08:00:38.866Z,28.90
2017-10-06T08:03:07.349Z,28.80
2017-10-06T08:05:35.829Z,28.60
2017-10-06T08:08:03.816Z,25.90
2017-10-06T08:10:31.969Z,26.00
2017-10-06T08:13:00.451Z,25.80
2017-10-06T08:15:28.963Z,29.30
2017-10-06T08:17:57.404Z,27.50
2017-10-06T08:20:25.854Z,25.10
2017-10-06T08:22:54.661Z,23.30
2017-10-06T08:25:23.145Z,24.40
2017-10-06T08:27:51.567Z,25.60
2017-10-06T08:30:20.036Z,25.80
2017-10-06T08:32:48.631Z,24.50
2017-10-06T08:35:17.143Z,22.90
2017-10-06T08:37:45.631Z,21.70
2017-10-06T08:40:14.911Z,24.80
2017-10-06T08:42:43.369Z,24.80
2017-10-06T08:45:11.472Z,22.90
2017-10-06T08:47:39.923Z,24.80
2017-10-06T08:50:08.384Z,26.30
2017-10-06T08:52:36.862Z,26.00
2017-10-06T08:55:05.331Z,24.60
2017-10-06T08:57:34.553Z,24.10
2017-10-06T09:00:03.023Z,24.10
2017-10-06T09:02:31.561Z,27.10
2017-10-06T09:05:00.015Z,28.60
2017-10-06T09:07:28.455Z,31.40
2017-10-06T09:09:57.691Z,31.60
2017-10-06T09:12:26.147Z,31.50
2017-10-06T09:14:54.628Z,31.00
2017-10-06T09:17:23.835Z,34.20
2017-10-06T09:19:52.301Z,34.10
2017-10-06T09:22:21.557Z,33.50
2017-10-06T09:24:50.010Z,33.40
2017-10-06T09:27:18.460Z,33.60
2017-10-06T09:29:47.703Z,38.70
2017-10-06T09:32:16.182Z,38.70
2017-10-06T09:34:44.694Z,36.20
2017-10-06T09:37:13.148Z,42.00
2017-10-06T09:39:41.568Z,41.10
2017-10-06T09:42:10.218Z,35.40
2017-10-06T09:44:39.428Z,28.60
2017-10-06T09:47:07.855Z,28.50
2017-10-06T09:49:37.030Z,26.70
2017-10-06T09:52:05.447Z,28.90
2017-10-06T09:54:33.859Z,27.20
2017-10-06T09:57:02.323Z,25.00
2017-10-06T09:59:30.734Z,26.50
2017-10-06T10:01:59.159Z,29.80
2017-10-06T10:04:28.375Z,27.40
2017-10-06T10:06:56.791Z,27.30
2017-10-06T10:09:25.227Z,27.80
2017-10-06T10:11:54.447Z,26.90
2017-10-06T10:14:22.850Z,26.90
2017-10-06T10:16:51.287Z,25.20
2017-10-06T10:19:20.490Z,26.20
2017-10-06T10:21:48.901Z,26.20
2017-10-06T10:24:17.318Z,26.20
2017-10-06T10:26:45.764Z,29.20
2017-10-06T10:29:14.199Z,28.60
2017-10-06T10:31:42.608Z,30.80
2017-10-06T10:34:11.031Z,32.40
2017-10-06T10:36:39.434Z,33.10
2017-10-06T10:39:07.851Z,34.90
2017-10-06T10:41:36.363Z,35.00
2017-10-06T10:44:04.778Z,35.40
2017-10-06T10:46:33.198Z,37.00
2017-10-06T10:49:01.636Z,35.80
2017-10-06T10:51:29.360Z,35.10
2017-10-06T10:53:57.481Z,36.60
2017-10-06T10:56:25.571Z,35.40
2017-10-06T10:58:54.777Z,37.30
2017-10-06T11:01:22.515Z,37.20
2017-10-06T11:03:50.608Z,35.30
2017-10-06T11:06:19.446Z,37.90
2017-10-06T11:08:47.168Z,37.80
2017-10-06T11:11:15.242Z,38.70
2017-10-06T11:13:42.958Z,40.10
2017-10-06T11:16:10.486Z,42.00
2017-10-06T11:18:38.403Z,43.70
2017-10-06T11:21:05.933Z,43.30
2017-10-06T11:23:33.655Z,46.50
2017-10-06T11:26:01.391Z,47.00
2017-10-06T11:28:28.950Z,46.30
2017-10-06T11:30:57.003Z,47.40
2017-10-06T11:33:24.710Z,48.10
2017-10-06T11:35:53.224Z,47.20
2017-10-06T11:38:21.625Z,47.10
2017-10-06T11:40:49.338Z,47.90
2017-10-06T11:43:17.434Z,48.20
2017-10-06T11:45:45.151Z,48.20
2017-10-06T11:48:12.869Z,47.60
2017-10-06T11:50:40.602Z,47.30
2017-10-06T11:53:09.428Z,45.20
2017-10-06T11:55:37.519Z,45.10
2017-10-06T11:58:05.587Z,44.50
2017-10-06T12:00:33.306Z,39.70
2017-10-06T12:03:01.805Z,35.10
2017-10-06T12:05:29.526Z,35.00
2017-10-06T12:07:57.236Z,30.00
2017-10-06T12:10:24.963Z,28.90
2017-10-06T12:12:53.026Z,30.30
2017-10-06T12:15:21.082Z,28.90
2017-10-06T12:17:48.811Z,28.50
2017-10-06T12:20:17.220Z,28.80
2017-10-06T12:22:45.275Z,28.00
2017-10-06T12:25:13.010Z,29.40
2017-10-06T12:27:41.496Z,29.70
2017-10-06T12:30:09.995Z,31.40
2017-10-06T12:32:38.474Z,31.40
2017-10-06T12:35:06.532Z,30.00
2017-10-06T12:37:35.359Z,32.00
2017-10-06T12:40:03.495Z,31.90
2017-10-06T12:42:31.991Z,33.10
2017-10-06T12:44:59.716Z,33.00
2017-10-06T12:47:27.498Z,32.50
2017-10-06T12:49:56.024Z,34.40
2017-10-06T12:52:24.183Z,34.40
2017-10-06T12:54:52.287Z,36.40
2017-10-06T12:57:20.820Z,36.40
2017-10-06T12:59:49.467Z,36.50
2017-10-06T13:02:17.300Z,36.70
2017-10-06T13:04:45.116Z,35.90
2017-10-06T13:07:13.241Z,38.10
2017-10-06T13:09:41.420Z,38.40
2017-10-06T13:12:09.319Z,37.50
2017-10-06T13:14:37.480Z,38.20
2017-10-06T13:17:06.819Z,39.80
2017-10-06T13:19:34.966Z,39.70
2017-10-06T13:22:03.263Z,40.50
2017-10-06T13:24:31.682Z,40.00
2017-10-06T13:27:00.228Z,39.60
2017-10-06T13:29:28.647Z,39.90
2017-10-06T13:31:57.112Z,38.90
2017-10-06T13:34:25.561Z,38.80
2017-10-06T13:36:53.974Z,39.00
2017-10-06T13:39:22.390Z,36.10
2017-10-06T13:41:50.903Z,37.50
2017-10-06T13:44:20.107Z,37.80
2017-10-06T13:46:49.310Z,36.10
2017-10-06T13:49:17.767Z,36.10
2017-10-06T13:51:46.170Z,37.30
2017-10-06T13:54:15.361Z,37.00
2017-10-06T13:56:44.596Z,38.00
2017-10-06T13:59:13.132Z,38.50
2017-10-06T14:01:41.557Z,38.90
2017-10-06T14:04:10.019Z,40.00
2017-10-06T14:06:38.436Z,40.30
2017-10-06T14:09:06.870Z,41.50
2017-10-06T14:11:35.335Z,40.20
2017-10-06T14:14:03.783Z,42.40
2017-10-06T14:16:32.223Z,40.00
2017-10-06T14:19:00.703Z,41.90
2017-10-06T14:21:29.120Z,40.50
2017-10-06T14:23:57.534Z,40.90
2017-10-06T14:26:25.966Z,39.80
2017-10-06T14:28:54.375Z,40.30
2017-10-06T14:31:22.836Z,40.70
2017-10-06T14:33:52.176Z,40.70
2017-10-06T14:36:20.598Z,41.70
2017-10-06T14:38:49.186Z,41.60
2017-10-06T14:41:17.935Z,40.40
2017-10-06T14:43:47.135Z,40.40
2017-10-06T14:46:15.575Z,40.40
2017-10-06T14:48:44.349Z,41.00
2017-10-06T14:51:12.898Z,41.50
2017-10-06T14:53:41.412Z,42.20
2017-10-06T14:56:09.867Z,42.60
2017-10-06T14:58:39.292Z,44.20
2017-10-06T15:01:07.717Z,44.10
2017-10-06T15:03:36.160Z,45.50
2017-10-06T15:06:04.595Z,44.50
2017-10-06T15:08:33.075Z,45.30
2017-10-06T15:11:01.516Z,46.30
2017-10-06T15:13:29.927Z,47.10
2017-10-06T15:15:58.370Z,46.80
2017-10-06T15:18:26.818Z,48.40
2017-10-06T15:20:56.016Z,48.70
2017-10-06T15:23:24.623Z,48.70
2017-10-06T15:25:53.079Z,48.00
2017-10-06T15:28:21.808Z,48.50
2017-10-06T15:30:50.312Z,50.10
2017-10-06T15:33:19.472Z,49.60
2017-10-06T15:35:48.663Z,50.10
2017-10-06T15:38:17.929Z,50.60
2017-10-06T15:40:46.378Z,50.10
2017-10-06T15:43:14.796Z,50.50
2017-10-06T15:45:43.543Z,51.60
2017-10-06T15:48:11.982Z,50.40
2017-10-06T15:50:40.409Z,50.60
2017-10-06T15:53:08.846Z,51.60
2017-10-06T15:55:37.292Z,51.80
2017-10-06T15:58:05.948Z,53.70
2017-10-06T16:00:34.456Z,55.70
2017-10-06T16:03:02.905Z,56.70
2017-10-06T16:05:31.327Z,57.70
2017-10-06T16:07:59.743Z,57.40
2017-10-06T16:10:28.219Z,60.50
2017-10-06T16:12:56.904Z,62.50
2017-10-06T16:15:25.591Z,62.20
2017-10-06T16:17:53.839Z,71.90
2017-10-06T16:20:22.542Z,76.40
2017-10-06T16:22:51.228Z,65.70
2017-10-06T16:25:19.923Z,71.30
2017-10-06T16:27:48.611Z,87.60
2017-10-06T16:32:43.499Z,96.30
2017-10-06T16:35:12.788Z,99.90
2017-10-06T16:37:42.275Z,99.90
2017-10-06T16:40:10.803Z,99.90
2017-10-06T16:42:39.480Z,99.90
2017-10-06T16:45:08.170Z,99.90
2017-10-06T16:47:36.898Z,99.90
2017-10-06T16:50:05.587Z,99.90
2017-10-06T16:52:34.259Z,99.90
2017-10-06T16:55:02.958Z,99.90
2017-10-06T16:57:31.630Z,99.90
2017-10-06T17:00:00.315Z,99.90
2017-10-06T17:02:29.007Z,99.90
2017-10-06T17:04:57.729Z,99.90
2017-10-06T17:07:26.395Z,99.90
2017-10-06T17:09:55.099Z,99.90
2017-10-06T17:12:23.794Z,99.90
2017-10-06T17:14:53.266Z,99.90
2017-10-06T17:17:21.832Z,99.90
2017-10-06T17:19:53.068Z,99.90
2017-10-06T17:22:21.845Z,99.90
2017-10-06T17:24:50.623Z,99.90
2017-10-06T17:27:19.467Z,99.90
2017-10-06T17:29:48.290Z,99.90
2017-10-06T17:32:17.036Z,99.90
2017-10-06T17:34:47.202Z,99.90
2017-10-06T17:37:16.277Z,99.90
2017-10-06T17:39:46.202Z,99.90
2017-10-06T17:42:15.433Z,99.90
2017-10-06T17:44:44.207Z,99.90
2017-10-06T17:47:12.978Z,99.90
2017-10-06T17:49:41.719Z,99.90
2017-10-06T17:52:11.686Z,99.90
2017-10-06T17:54:40.655Z,99.90
2017-10-06T17:57:09.602Z,99.90
2017-10-06T17:59:38.301Z,99.90
2017-10-06T18:02:07.261Z,99.90
2017-10-06T18:04:36.250Z,99.90
2017-10-06T18:07:04.972Z,99.90
2017-10-06T18:09:33.699Z,99.90
2017-10-06T18:12:02.412Z,99.90
2017-10-06T18:14:31.128Z,99.90
2017-10-06T18:17:00.527Z,99.90
2017-10-06T18:19:30.136Z,99.90
2017-10-06T18:21:59.604Z,99.90
2017-10-06T18:24:28.603Z,99.90
2017-10-06T18:26:57.293Z,99.90
2017-10-06T18:29:25.839Z,99.90
2017-10-06T18:31:54.593Z,99.90
2017-10-06T18:34:24.050Z,99.90
2017-10-06T18:36:53.185Z,99.90
2017-10-06T18:39:22.733Z,99.90
2017-10-06T18:41:51.486Z,99.90
2017-10-06T18:44:21.796Z,99.90
2017-10-06T18:46:50.719Z,99.90
2017-10-06T18:49:19.536Z,99.90
2017-10-06T18:51:48.394Z,99.90
2017-10-06T18:54:17.841Z,99.90
2017-10-06T18:56:46.789Z,99.90
2017-10-06T18:59:15.731Z,99.90
2017-10-06T19:01:44.413Z,99.90
2017-10-06T19:04:12.974Z,99.90
2017-10-06T19:06:42.412Z,99.90
2017-10-06T19:09:11.090Z,99.90
2017-10-06T19:11:39.811Z,99.90
2017-10-06T19:14:08.296Z,99.90
2017-10-06T19:16:37.004Z,99.90
2017-10-06T19:19:06.457Z,99.90
2017-10-06T19:21:34.853Z,99.90
2017-10-06T19:24:03.598Z,99.90
2017-10-06T19:26:32.505Z,99.90
2017-10-06T19:29:01.318Z,99.90
2017-10-06T19:31:30.260Z,99.90
2017-10-06T19:33:59.293Z,99.90
2017-10-06T19:36:27.774Z,99.90
2017-10-06T19:38:56.382Z,99.90
2017-10-06T19:41:25.091Z,97.70
2017-10-06T19:43:53.841Z,95.40
2017-10-06T19:46:22.415Z,96.30
2017-10-06T19:48:51.103Z,96.70
2017-10-06T19:51:19.647Z,97.50
2017-10-06T19:53:48.615Z,96.00
2017-10-06T19:56:17.542Z,95.40
2017-10-06T19:58:46.999Z,96.20
2017-10-06T20:01:16.486Z,99.90
2017-10-06T20:03:45.154Z,99.90
2017-10-06T20:06:16.619Z,98.50
2017-10-06T20:08:46.920Z,99.90
2017-10-06T20:11:15.594Z,99.90
2017-10-06T20:13:44.268Z,99.90
2017-10-06T20:16:12.958Z,99.90
2017-10-06T20:18:41.882Z,99.90
2017-10-06T20:21:11.004Z,99.90
2017-10-06T20:23:39.587Z,99.90
2017-10-06T20:26:08.127Z,99.90
2017-10-06T20:28:37.022Z,99.90
2017-10-06T20:31:05.740Z,99.90
2017-10-06T20:33:34.410Z,99.90
2017-10-06T20:36:03.753Z,99.90
2017-10-06T20:38:32.935Z,99.90
2017-10-06T20:41:01.607Z,99.90
2017-10-06T20:43:30.495Z,99.90
2017-10-06T20:45:59.238Z,99.90
2017-10-06T20:48:27.729Z,99.90
2017-10-06T20:50:56.490Z,99.90
2017-10-06T20:53:25.183Z,99.90
2017-10-06T20:55:54.038Z,99.90
2017-10-06T20:58:22.731Z,99.90
2017-10-06T21:00:51.626Z,99.90
2017-10-06T21:03:20.527Z,99.90
2017-10-06T21:05:49.476Z,99.90
2017-10-06T21:08:18.363Z,99.90
2017-10-06T21:10:48.031Z,99.90
2017-10-06T21:13:16.726Z,99.90
2017-10-06T21:15:45.419Z,99.90
2017-10-06T21:18:14.096Z,99.90
2017-10-06T21:20:43.080Z,99.90
2017-10-06T21:23:11.759Z,99.90
2017-10-06T21:25:40.440Z,99.90
2017-10-06T21:28:09.135Z,99.90
2017-10-06T21:30:37.470Z,99.90
2017-10-06T21:33:06.147Z,99.90
2017-10-06T21:35:34.851Z,99.90
2017-10-06T21:38:03.518Z,99.90
2017-10-06T21:40:32.189Z,99.90
2017-10-06T21:43:00.910Z,99.90
2017-10-06T21:45:29.595Z,99.90
2017-10-06T21:47:59.291Z,99.90
2017-10-06T21:50:27.994Z,99.90
2017-10-06T21:52:59.087Z,99.90
2017-10-06T21:55:27.762Z,99.90
2017-10-06T21:57:56.476Z,99.90
2017-10-06T22:00:25.204Z,99.90
2017-10-06T22:02:53.884Z,99.90
2017-10-06T22:05:23.738Z,99.90
2017-10-06T22:07:52.650Z,99.90
2017-10-06T22:10:21.232Z,99.90
2017-10-06T22:12:50.220Z,99.90
2017-10-06T22:15:19.119Z,99.90
2017-10-06T22:17:47.803Z,99.90
2017-10-06T22:20:16.503Z,99.90
2017-10-06T22:22:45.947Z,99.90
2017-10-06T22:25:15.388Z,99.90
2017-10-06T22:27:44.350Z,99.90
2017-10-06T22:30:13.791Z,99.90
2017-10-06T22:32:42.474Z,99.90
2017-10-06T22:35:11.210Z,99.90
2017-10-06T22:37:40.253Z,99.90
2017-10-06T22:40:08.841Z,99.90
2017-10-06T22:42:37.533Z,99.90
2017-10-06T22:45:06.196Z,99.90
2017-10-06T22:47:35.080Z,99.90
2017-10-06T22:50:04.557Z,99.90
2017-10-06T22:52:33.221Z,99.90
2017-10-06T22:55:01.892Z,99.90
2017-10-06T22:57:30.897Z,99.90
2017-10-06T22:59:59.281Z,99.90
2017-10-06T23:02:28.198Z,99.90
2017-10-06T23:04:56.893Z,99.90
2017-10-06T23:07:25.545Z,99.90
2017-10-06T23:09:54.213Z,99.90
2017-10-06T23:12:22.937Z,99.90
2017-10-06T23:14:51.605Z,99.90
2017-10-06T23:17:20.525Z,99.90
2017-10-06T23:19:49.425Z,99.90
2017-10-06T23:22:18.465Z,99.90
2017-10-06T23:24:47.122Z,99.90
2017-10-06T23:27:16.615Z,99.90
2017-10-06T23:29:45.078Z,99.90
2017-10-06T23:32:13.749Z,99.90
2017-10-06T23:34:42.678Z,99.90
2017-10-06T23:37:11.330Z,99.90
2017-10-06T23:39:40.009Z,99.90
2017-10-06T23:42:08.674Z,99.90
2017-10-06T23:44:37.385Z,99.90
2017-10-06T23:47:06.081Z,99.90
2017-10-06T23:49:34.740Z,99.90
2017-10-06T23:52:03.649Z,99.90
2017-10-06T23:54:32.381Z,99.90
2017-10-06T23:57:01.821Z,99.90
2017-10-06T23:59:30.485Z,99.90
